Time;durP1;ratioP1;P1;durP2;ratioP2;P2;SDS_P1;SDS_P2;PMS_P1;PMS_P2;Temp;Humidity;BMP_temperature;BMP_pressure;BME280_temperature;BME280_humidity;BME280_pressure;Samples;Min_cycle;Max_cycle;Signal;HPM_P1;HPM_P2
2023/04/07 00:00:28;;;;;;;266.33;220.23;;;;;;;;;;4995592;28;20460;-47
2023/04/07 00:02:54;;;;;;;266.67;218.82;;;;;;;;;;4994941;28;20228;-47
2023/04/07 00:05:20;;;;;;;261.30;213.23;;;;;;;;;;4994723;28;20502;-47
2023/04/07 00:07:46;;;;;;;249.93;207.88;;;;;;;;;;4994283;28;20185;-47
2023/04/07 00:10:12;;;;;;;247.90;201.48;;;;;;;;;;4993870;28;20189;-47
2023/04/07 00:12:38;;;;;;;242.40;199.65;;;;;;;;;;4991363;28;20476;-47
2023/04/07 00:15:04;;;;;;;234.68;191.70;;;;;;;;;;5001302;28;20558;-48
2023/04/07 00:17:30;;;;;;;229.88;188.43;;;;;;;;;;4988777;28;20187;-47
2023/04/07 00:19:56;;;;;;;228.30;185.07;;;;;;;;;;4994145;28;20264;-47
2023/04/07 00:22:22;;;;;;;219.50;177.50;;;;;;;;;;4991286;28;20203;-47
2023/04/07 00:24:48;;;;;;;212.88;171.95;;;;;;;;;;4994878;28;20513;-47
2023/04/07 00:27:14;;;;;;;209.60;168.45;;;;;;;;;;4987858;28;20268;-47
2023/04/07 00:29:42;;;;;;;202.60;165.27;;;;;;;;;;4987803;28;20188;-47
2023/04/07 00:32:08;;;;;;;203.48;162.35;;;;;;;;;;4991979;28;20285;-47
2023/04/07 00:34:34;;;;;;;192.95;156.38;;;;;;;;;;4993317;28;20208;-48
2023/04/07 00:37:00;;;;;;;195.20;156.60;;;;;;;;;;4990400;28;20217;-48
2023/04/07 00:39:26;;;;;;;187.70;152.38;;;;;;;;;;4994135;28;20564;-48
2023/04/07 00:41:52;;;;;;;185.07;146.85;;;;;;;;;;4992810;28;20181;-48
2023/04/07 00:44:18;;;;;;;180.25;145.40;;;;;;;;;;4997664;28;20203;-47
2023/04/07 00:46:44;;;;;;;175.05;143.20;;;;;;;;;;4993828;28;20552;-48
2023/04/07 00:49:12;;;;;;;163.60;135.13;;;;;;;;;;4992017;28;20194;-48
2023/04/07 00:51:38;;;;;;;162.48;129.65;;;;;;;;;;4994278;28;20208;-47
2023/04/07 00:54:03;;;;;;;161.27;129.30;;;;;;;;;;4992621;28;20196;-47
2023/04/07 00:56:29;;;;;;;156.52;127.90;;;;;;;;;;4989453;28;20500;-47
2023/04/07 00:58:55;;;;;;;153.57;123.15;;;;;;;;;;4993226;28;20616;-47
2023/04/07 01:01:22;;;;;;;151.07;121.53;;;;;;;;;;4994416;28;20468;-48
2023/04/07 01:03:51;;;;;;;144.23;114.85;;;;;;;;;;4997865;28;20496;-47
2023/04/07 01:06:19;;;;;;;140.57;113.47;;;;;;;;;;4995276;28;20196;-47
2023/04/07 01:09:01;;;;;;;141.60;112.82;;;;;;;;;;4996809;28;20211;-47
2023/04/07 01:11:30;;;;;;;139.27;112.28;;;;;;;;;;4991762;28;20258;-47
2023/04/07 01:13:57;;;;;;;132.32;108.25;;;;;;;;;;4995502;28;20318;-47
2023/04/07 01:16:26;;;;;;;125.50;102.80;;;;;;;;;;4998004;28;20177;-47
2023/04/07 01:18:54;;;;;;;124.68;101.63;;;;;;;;;;4997261;28;20196;-47
2023/04/07 01:21:22;;;;;;;123.05;99.70;;;;;;;;;;4991003;28;20553;-47
2023/04/07 01:23:51;;;;;;;120.93;97.40;;;;;;;;;;4994103;28;20193;-47
2023/04/07 01:26:19;;;;;;;116.53;92.75;;;;;;;;;;4996936;28;20196;-47
2023/04/07 01:28:57;;;;;;;116.75;91.53;;;;;;;;;;4995879;28;20189;-47
2023/04/07 01:31:25;;;;;;;111.05;88.15;;;;;;;;;;4995511;28;20348;-47
2023/04/07 01:33:52;;;;;;;105.05;87.13;;;;;;;;;;4996254;28;20182;-47
2023/04/07 01:36:18;;;;;;;105.63;83.75;;;;;;;;;;4995831;28;20243;-47
2023/04/07 01:38:45;;;;;;;100.38;81.47;;;;;;;;;;4995723;28;20200;-47
2023/04/07 01:41:13;;;;;;;100.30;78.75;;;;;;;;;;4997758;28;20449;-47
2023/04/07 01:43:39;;;;;;;94.07;77.47;;;;;;;;;;4996131;28;20181;-47
2023/04/07 01:46:05;;;;;;;96.00;78.30;;;;;;;;;;5001771;28;20196;-47
2023/04/07 01:48:31;;;;;;;93.72;74.43;;;;;;;;;;4994928;28;20276;-47
2023/04/07 01:50:58;;;;;;;89.10;71.93;;;;;;;;;;4997573;28;20184;-47
2023/04/07 01:53:25;;;;;;;89.20;71.05;;;;;;;;;;4994281;28;20239;-47
2023/04/07 01:55:52;;;;;;;83.57;66.95;;;;;;;;;;4993403;28;20177;-47
2023/04/07 01:58:18;;;;;;;81.97;67.18;;;;;;;;;;4986169;28;20618;-47
2023/04/07 02:00:44;;;;;;;82.80;67.35;;;;;;;;;;4992402;28;20240;-47
2023/04/07 02:03:19;;;;;;;77.55;63.15;;;;;;;;;;4995629;28;20189;-46
2023/04/07 02:05:47;;;;;;;78.90;62.88;;;;;;;;;;4992112;28;20238;-46
2023/04/07 02:08:15;;;;;;;73.75;59.50;;;;;;;;;;4996192;28;20217;-46
2023/04/07 02:10:41;;;;;;;72.90;58.13;;;;;;;;;;4994880;28;20266;-46
2023/04/07 02:13:10;;;;;;;69.60;57.85;;;;;;;;;;4994507;28;20221;-47
2023/04/07 02:15:36;;;;;;;66.25;54.17;;;;;;;;;;5001882;28;20196;-46
2023/04/07 02:18:03;;;;;;;68.18;55.30;;;;;;;;;;4994075;28;20481;-46
2023/04/07 02:20:29;;;;;;;66.05;52.65;;;;;;;;;;4997423;28;20268;-46
2023/04/07 02:22:55;;;;;;;65.47;52.15;;;;;;;;;;4995579;28;20177;-47
2023/04/07 02:25:28;;;;;;;60.45;49.42;;;;;;;;;;4996002;28;20197;-47
2023/04/07 02:27:55;;;;;;;58.40;48.83;;;;;;;;;;4993146;28;20629;-46
2023/04/07 02:30:21;;;;;;;58.38;48.08;;;;;;;;;;4988266;28;20228;-46
2023/04/07 02:32:47;;;;;;;57.42;47.63;;;;;;;;;;4995393;28;20295;-46
2023/04/07 02:35:14;;;;;;;58.03;46.25;;;;;;;;;;4995773;28;20276;-46
2023/04/07 02:37:40;;;;;;;53.92;44.95;;;;;;;;;;4992623;28;20189;-46
2023/04/07 02:40:06;;;;;;;53.42;43.20;;;;;;;;;;4988634;28;20263;-46
2023/04/07 02:42:32;;;;;;;49.72;41.55;;;;;;;;;;4996077;28;20243;-47
2023/04/07 02:44:58;;;;;;;51.35;41.20;;;;;;;;;;4995513;28;20539;-47
2023/04/07 02:47:24;;;;;;;48.83;40.60;;;;;;;;;;4986807;28;20466;-47
2023/04/07 02:49:50;;;;;;;48.13;40.55;;;;;;;;;;4996919;28;20177;-46
2023/04/07 02:52:16;;;;;;;45.17;38.35;;;;;;;;;;4994649;28;20442;-47
2023/04/07 02:54:42;;;;;;;46.65;38.33;;;;;;;;;;4996245;28;20561;-47
2023/04/07 02:57:08;;;;;;;46.90;38.35;;;;;;;;;;4994315;28;20216;-47
2023/04/07 02:59:34;;;;;;;42.85;35.63;;;;;;;;;;4993645;28;20466;-47
2023/04/07 03:02:00;;;;;;;42.60;35.80;;;;;;;;;;4992804;28;20188;-47
2023/04/07 03:04:27;;;;;;;41.63;34.80;;;;;;;;;;4995211;28;20185;-47
2023/04/07 03:06:52;;;;;;;38.53;33.00;;;;;;;;;;4994278;28;20232;-47
2023/04/07 03:09:18;;;;;;;39.72;33.53;;;;;;;;;;4995106;28;20595;-47
2023/04/07 03:11:44;;;;;;;39.80;32.45;;;;;;;;;;4992412;28;20205;-47
2023/04/07 03:14:10;;;;;;;37.67;31.88;;;;;;;;;;4997908;28;20192;-47
2023/04/07 03:16:36;;;;;;;37.95;31.75;;;;;;;;;;4992831;28;20186;-47
2023/04/07 03:19:02;;;;;;;38.58;31.25;;;;;;;;;;4993996;28;20213;-47
2023/04/07 03:21:28;;;;;;;36.63;30.85;;;;;;;;;;4996409;28;20181;-47
2023/04/07 03:23:54;;;;;;;35.45;28.90;;;;;;;;;;4994006;28;20411;-46
2023/04/07 03:26:20;;;;;;;33.15;28.58;;;;;;;;;;4991610;28;20185;-46
2023/04/07 03:28:46;;;;;;;31.83;27.05;;;;;;;;;;4993525;28;20252;-46
2023/04/07 03:31:12;;;;;;;32.97;27.92;;;;;;;;;;4993363;28;20560;-47
2023/04/07 03:33:38;;;;;;;32.83;26.92;;;;;;;;;;4994054;28;20181;-47
2023/04/07 03:36:04;;;;;;;32.95;26.05;;;;;;;;;;4995517;28;20189;-46
2023/04/07 03:38:30;;;;;;;30.40;25.55;;;;;;;;;;4995588;28;20189;-47
2023/04/07 03:40:56;;;;;;;30.85;25.27;;;;;;;;;;4989821;28;20208;-47
2023/04/07 03:43:22;;;;;;;29.52;24.30;;;;;;;;;;4994808;28;20268;-47
2023/04/07 03:45:48;;;;;;;29.20;24.48;;;;;;;;;;5002760;28;20197;-47
2023/04/07 03:48:14;;;;;;;26.13;22.25;;;;;;;;;;4995189;28;20193;-47
2023/04/07 03:50:40;;;;;;;28.42;23.92;;;;;;;;;;4995814;28;20456;-47
2023/04/07 03:53:06;;;;;;;26.65;22.25;;;;;;;;;;4999962;28;20307;-47
2023/04/07 03:55:34;;;;;;;25.63;21.88;;;;;;;;;;4987236;28;20185;-47
2023/04/07 03:58:00;;;;;;;25.00;20.77;;;;;;;;;;4995292;28;20545;-47
2023/04/07 04:00:26;;;;;;;24.90;21.27;;;;;;;;;;4995060;28;20212;-47
2023/04/07 04:02:52;;;;;;;24.70;20.45;;;;;;;;;;4993582;28;20196;-47
2023/04/07 04:05:18;;;;;;;23.13;19.27;;;;;;;;;;4989741;28;20509;-46
2023/04/07 04:07:44;;;;;;;22.75;19.45;;;;;;;;;;4995206;28;20192;-46
2023/04/07 04:10:10;;;;;;;22.52;19.30;;;;;;;;;;4993284;28;20639;-46
2023/04/07 04:12:36;;;;;;;21.40;18.95;;;;;;;;;;4995197;28;20288;-47
2023/04/07 04:15:02;;;;;;;20.98;18.45;;;;;;;;;;4999518;28;20207;-47
2023/04/07 04:17:28;;;;;;;20.20;17.85;;;;;;;;;;4990638;28;20195;-47
2023/04/07 04:19:54;;;;;;;19.55;17.42;;;;;;;;;;4991036;28;20260;-47
2023/04/07 04:22:20;;;;;;;20.27;17.33;;;;;;;;;;4991365;28;20181;-47
2023/04/07 04:24:46;;;;;;;20.17;16.63;;;;;;;;;;4994434;28;20224;-47
2023/04/07 04:27:12;;;;;;;18.73;16.23;;;;;;;;;;4991029;28;20228;-47
2023/04/07 04:29:37;;;;;;;18.15;15.63;;;;;;;;;;4993613;28;20619;-47
2023/04/07 04:32:03;;;;;;;19.33;16.10;;;;;;;;;;4992249;28;20279;-47
2023/04/07 04:34:29;;;;;;;18.60;15.82;;;;;;;;;;4990384;28;20471;-47
2023/04/07 04:36:55;;;;;;;17.08;14.38;;;;;;;;;;4994021;28;20192;-47
2023/04/07 04:39:21;;;;;;;16.20;14.05;;;;;;;;;;4999159;28;20449;-47
2023/04/07 04:41:47;;;;;;;16.55;14.75;;;;;;;;;;4998163;28;20429;-47
2023/04/07 04:44:13;;;;;;;15.95;14.18;;;;;;;;;;4992848;28;20180;-48
2023/04/07 04:46:39;;;;;;;15.73;13.35;;;;;;;;;;5003788;28;22430;-47
2023/04/07 04:49:05;;;;;;;15.57;13.73;;;;;;;;;;4994070;28;20484;-47
2023/04/07 04:51:31;;;;;;;15.45;12.45;;;;;;;;;;4994820;28;20231;-47
2023/04/07 04:53:57;;;;;;;15.20;12.70;;;;;;;;;;4994221;28;20194;-47
2023/04/07 04:56:23;;;;;;;14.07;12.07;;;;;;;;;;4993516;28;20181;-47
2023/04/07 04:58:49;;;;;;;14.40;12.52;;;;;;;;;;4993892;28;20188;-47
2023/04/07 05:01:15;;;;;;;14.77;12.15;;;;;;;;;;4992823;28;20185;-47
2023/04/07 05:03:41;;;;;;;12.52;11.23;;;;;;;;;;4996812;28;20463;-47
2023/04/07 05:06:07;;;;;;;12.75;11.40;;;;;;;;;;4997185;28;20203;-47
2023/04/07 05:08:33;;;;;;;13.52;11.80;;;;;;;;;;4995013;28;20188;-47
2023/04/07 05:10:59;;;;;;;13.52;11.15;;;;;;;;;;4998317;28;20181;-47
2023/04/07 05:13:25;;;;;;;12.02;10.63;;;;;;;;;;4996682;28;20292;-47
2023/04/07 05:15:51;;;;;;;11.50;10.30;;;;;;;;;;4992998;28;20210;-47
2023/04/07 05:18:17;;;;;;;12.18;10.63;;;;;;;;;;4993323;28;20510;-48
2023/04/07 05:20:43;;;;;;;11.63;10.15;;;;;;;;;;4998425;28;20189;-47
2023/04/07 05:23:09;;;;;;;12.13;10.48;;;;;;;;;;4993508;28;20561;-47
2023/04/07 05:25:35;;;;;;;12.75;9.82;;;;;;;;;;4991537;28;20181;-47
2023/04/07 05:28:01;;;;;;;10.70;9.60;;;;;;;;;;4991253;28;20329;-47
2023/04/07 05:30:27;;;;;;;11.38;9.82;;;;;;;;;;4997893;28;20216;-47
2023/04/07 05:32:54;;;;;;;11.18;9.63;;;;;;;;;;4994161;28;20292;-47
2023/04/07 05:35:20;;;;;;;10.30;9.27;;;;;;;;;;4997346;28;20181;-47
2023/04/07 05:37:45;;;;;;;10.82;8.80;;;;;;;;;;4993663;28;20243;-47
2023/04/07 05:40:12;;;;;;;9.45;8.35;;;;;;;;;;4996605;28;20189;-47
2023/04/07 05:42:37;;;;;;;10.30;8.70;;;;;;;;;;4996972;28;20213;-47
2023/04/07 05:45:04;;;;;;;9.63;8.57;;;;;;;;;;4996381;28;20226;-47
2023/04/07 05:47:30;;;;;;;9.80;8.45;;;;;;;;;;4991292;28;20182;-47
2023/04/07 05:49:56;;;;;;;8.70;7.80;;;;;;;;;;4997623;28;20207;-47
2023/04/07 05:52:22;;;;;;;9.73;8.48;;;;;;;;;;4992597;28;20961;-47
2023/04/07 05:54:48;;;;;;;9.48;7.65;;;;;;;;;;4994004;28;20269;-48
2023/04/07 05:57:14;;;;;;;9.45;7.90;;;;;;;;;;4994540;28;20268;-47
2023/04/07 05:59:40;;;;;;;9.90;7.75;;;;;;;;;;4997459;28;20177;-47
2023/04/07 06:02:06;;;;;;;16.15;9.63;;;;;;;;;;4995058;28;20189;-47
2023/04/07 06:04:34;;;;;;;16.17;9.75;;;;;;;;;;4990268;28;20236;-48
2023/04/07 06:07:00;;;;;;;15.23;9.77;;;;;;;;;;4991155;28;20452;-48
2023/04/07 06:09:26;;;;;;;21.42;9.38;;;;;;;;;;4996658;28;20190;-48
2023/04/07 06:11:51;;;;;;;19.08;10.20;;;;;;;;;;4995588;28;20220;-48
2023/04/07 06:14:17;;;;;;;19.45;10.20;;;;;;;;;;4995198;28;20215;-48
2023/04/07 06:16:44;;;;;;;16.00;9.93;;;;;;;;;;5001272;28;20627;-48
2023/04/07 06:19:10;;;;;;;24.65;10.20;;;;;;;;;;4992838;28;20178;-48
2023/04/07 06:21:36;;;;;;;21.33;10.32;;;;;;;;;;4990677;28;20181;-48
2023/04/07 06:24:06;;;;;;;14.40;9.35;;;;;;;;;;4994063;28;20203;-49
2023/04/07 06:26:32;;;;;;;16.90;8.10;;;;;;;;;;4995514;28;20256;-48
2023/04/07 06:28:58;;;;;;;14.90;9.07;;;;;;;;;;4992033;28;20284;-48
2023/04/07 06:31:24;;;;;;;12.05;7.80;;;;;;;;;;4996245;28;20276;-48
2023/04/07 06:33:50;;;;;;;16.85;8.10;;;;;;;;;;4996162;28;20431;-48
2023/04/07 06:36:16;;;;;;;12.10;7.95;;;;;;;;;;4996703;28;20273;-48
2023/04/07 06:38:42;;;;;;;12.65;7.63;;;;;;;;;;4990641;28;20197;-49
2023/04/07 06:41:15;;;;;;;11.45;6.90;;;;;;;;;;4996907;28;20451;-48
2023/04/07 06:43:41;;;;;;;11.73;7.07;;;;;;;;;;4990934;28;20187;-48
2023/04/07 06:46:07;;;;;;;13.55;6.70;;;;;;;;;;5003381;28;20193;-49
2023/04/07 06:48:33;;;;;;;12.95;6.82;;;;;;;;;;4994532;28;20185;-48
2023/04/07 06:50:59;;;;;;;13.07;6.95;;;;;;;;;;4993790;28;20177;-46
2023/04/07 06:53:25;;;;;;;10.98;6.30;;;;;;;;;;4994895;28;20856;-51
2023/04/07 06:55:51;;;;;;;8.73;5.63;;;;;;;;;;4996222;28;20181;-51
2023/04/07 06:58:17;;;;;;;9.98;6.03;;;;;;;;;;4990614;28;20181;-50
2023/04/07 07:00:43;;;;;;;8.60;6.00;;;;;;;;;;4995949;28;20232;-51
2023/04/07 07:03:08;;;;;;;7.13;5.90;;;;;;;;;;4985574;28;20190;-49
2023/04/07 07:05:34;;;;;;;11.15;5.90;;;;;;;;;;4993321;28;20200;-47
2023/04/07 07:08:00;;;;;;;12.45;5.72;;;;;;;;;;4990196;28;20192;-48
2023/04/07 07:10:26;;;;;;;7.68;5.47;;;;;;;;;;4993292;28;20676;-50
2023/04/07 07:12:52;;;;;;;10.73;5.20;;;;;;;;;;4994773;28;20216;-49
2023/04/07 07:15:18;;;;;;;13.10;5.47;;;;;;;;;;5005882;28;20208;-49
2023/04/07 07:17:44;;;;;;;7.60;4.72;;;;;;;;;;4990497;28;20572;-50
2023/04/07 07:20:10;;;;;;;7.20;5.03;;;;;;;;;;4994024;28;20185;-50
2023/04/07 07:22:36;;;;;;;8.93;5.22;;;;;;;;;;4990457;28;20592;-50
2023/04/07 07:25:02;;;;;;;11.30;5.07;;;;;;;;;;4994023;28;20281;-50
2023/04/07 07:27:28;;;;;;;7.82;5.20;;;;;;;;;;4990734;28;20311;-50
2023/04/07 07:29:54;;;;;;;8.82;4.80;;;;;;;;;;4994101;28;20193;-50
2023/04/07 07:32:20;;;;;;;10.55;5.32;;;;;;;;;;4988498;28;20246;-49
2023/04/07 07:34:46;;;;;;;8.38;5.30;;;;;;;;;;4995800;28;20190;-49
2023/04/07 07:37:12;;;;;;;9.48;4.57;;;;;;;;;;4989767;28;20197;-49
2023/04/07 07:39:38;;;;;;;9.70;5.60;;;;;;;;;;4994731;28;20268;-50
2023/04/07 07:42:04;;;;;;;10.30;5.40;;;;;;;;;;4990875;28;20193;-50
2023/04/07 07:44:30;;;;;;;7.60;4.97;;;;;;;;;;4995680;28;20185;-50
2023/04/07 07:46:55;;;;;;;13.75;4.72;;;;;;;;;;4999039;28;20200;-51
2023/04/07 07:49:21;;;;;;;7.13;5.10;;;;;;;;;;4990763;28;20177;-50
2023/04/07 07:51:47;;;;;;;10.68;5.55;;;;;;;;;;4990515;28;20573;-51
2023/04/07 07:54:13;;;;;;;9.32;4.75;;;;;;;;;;4993412;28;20185;-50
2023/04/07 07:56:39;;;;;;;8.38;4.72;;;;;;;;;;4990865;28;20479;-50
2023/04/07 07:59:05;;;;;;;7.90;4.20;;;;;;;;;;4990986;28;20252;-50
2023/04/07 08:01:32;;;;;;;7.05;4.93;;;;;;;;;;4990822;28;20549;-51
2023/04/07 08:03:57;;;;;;;5.90;4.80;;;;;;;;;;4993549;28;20181;-50
2023/04/07 08:06:24;;;;;;;7.72;4.72;;;;;;;;;;4993042;28;20185;-50
2023/04/07 08:08:50;;;;;;;6.57;4.50;;;;;;;;;;4981318;28;20269;-51
2023/04/07 08:11:16;;;;;;;8.23;4.22;;;;;;;;;;4989774;28;20178;-50
2023/04/07 08:13:44;;;;;;;5.82;4.20;;;;;;;;;;4990291;28;20226;-50
2023/04/07 08:16:10;;;;;;;5.32;3.97;;;;;;;;;;4996450;28;20240;-51
2023/04/07 08:18:36;;;;;;;5.05;4.07;;;;;;;;;;4990904;28;20235;-50
2023/04/07 08:21:03;;;;;;;6.50;3.80;;;;;;;;;;4992255;28;20188;-51
2023/04/07 08:23:30;;;;;;;7.55;4.57;;;;;;;;;;4991781;28;20446;-50
2023/04/07 08:25:55;;;;;;;7.30;4.03;;;;;;;;;;4990314;28;20247;-51
2023/04/07 08:28:22;;;;;;;6.88;3.50;;;;;;;;;;4989731;28;20192;-50
2023/04/07 08:30:48;;;;;;;5.35;4.10;;;;;;;;;;4993464;28;20192;-50
2023/04/07 08:33:14;;;;;;;5.78;3.50;;;;;;;;;;4992472;28;20220;-50
2023/04/07 08:35:40;;;;;;;6.30;3.92;;;;;;;;;;4991909;28;20215;-50
2023/04/07 08:38:07;;;;;;;4.95;4.05;;;;;;;;;;4992142;28;20556;-50
2023/04/07 08:40:34;;;;;;;5.38;3.63;;;;;;;;;;4989861;28;20240;-50
2023/04/07 08:43:00;;;;;;;5.18;3.85;;;;;;;;;;4983224;28;21000;-50
2023/04/07 08:45:26;;;;;;;5.55;4.05;;;;;;;;;;4989657;28;20561;-50
2023/04/07 08:47:56;;;;;;;4.95;3.80;;;;;;;;;;4991723;28;20196;-50
2023/04/07 08:50:22;;;;;;;5.13;3.95;;;;;;;;;;4987338;28;20284;-50
2023/04/07 08:52:55;;;;;;;5.03;4.10;;;;;;;;;;4994430;28;21002;-50
2023/04/07 08:55:21;;;;;;;7.38;4.35;;;;;;;;;;4988562;28;20620;-50
2023/04/07 08:57:47;;;;;;;5.13;3.78;;;;;;;;;;4993266;28;20268;-50
2023/04/07 09:00:14;;;;;;;7.05;3.85;;;;;;;;;;4994394;28;20177;-50
2023/04/07 09:02:43;;;;;;;4.68;3.78;;;;;;;;;;4987258;28;20185;-50
2023/04/07 09:05:10;;;;;;;6.65;4.40;;;;;;;;;;4987235;28;20182;-50
2023/04/07 09:07:37;;;;;;;6.78;4.05;;;;;;;;;;4992588;28;20185;-50
2023/04/07 09:10:03;;;;;;;4.45;3.83;;;;;;;;;;4990508;28;20189;-50
2023/04/07 09:12:29;;;;;;;4.82;3.65;;;;;;;;;;4987616;28;20201;-50
2023/04/07 09:14:55;;;;;;;5.25;3.90;;;;;;;;;;5002757;28;20181;-50
2023/04/07 09:17:21;;;;;;;5.53;4.07;;;;;;;;;;4985796;28;20465;-50
2023/04/07 09:19:48;;;;;;;5.75;4.57;;;;;;;;;;4990035;28;20188;-50
2023/04/07 09:22:14;;;;;;;5.05;3.95;;;;;;;;;;4996058;28;20517;-51
2023/04/07 09:24:41;;;;;;;4.65;3.70;;;;;;;;;;4989631;28;20240;-50
2023/04/07 09:27:17;;;;;;;4.40;3.58;;;;;;;;;;4992001;28;20212;-50
2023/04/07 09:29:44;;;;;;;8.20;3.75;;;;;;;;;;4997478;28;20180;-50
2023/04/07 09:32:12;;;;;;;5.78;3.97;;;;;;;;;;4995730;28;20201;-51
2023/04/07 09:34:39;;;;;;;4.18;3.55;;;;;;;;;;4994499;28;20583;-50
2023/04/07 09:37:06;;;;;;;6.10;3.95;;;;;;;;;;4992136;28;20293;-50
2023/04/07 09:39:32;;;;;;;3.88;2.83;;;;;;;;;;4996083;28;20207;-51
2023/04/07 09:41:58;;;;;;;4.20;3.50;;;;;;;;;;4993824;28;20192;-50
2023/04/07 09:44:24;;;;;;;5.43;4.00;;;;;;;;;;5000747;28;20184;-50
2023/04/07 09:46:51;;;;;;;4.80;3.58;;;;;;;;;;5012039;28;20177;-50
2023/04/07 09:49:19;;;;;;;4.85;2.90;;;;;;;;;;4998106;28;20457;-50
2023/04/07 09:52:06;;;;;;;2.60;2.40;;;;;;;;;;4992914;28;20215;-50
2023/04/07 09:54:33;;;;;;;6.72;4.07;;;;;;;;;;4993249;28;20185;-50
2023/04/07 09:57:00;;;;;;;3.72;3.08;;;;;;;;;;4985574;28;20178;-50
2023/04/07 09:59:27;;;;;;;4.95;3.25;;;;;;;;;;4991820;28;20459;-50
2023/04/07 10:01:53;;;;;;;4.30;3.25;;;;;;;;;;4995980;28;20189;-50
2023/04/07 10:04:19;;;;;;;3.90;2.85;;;;;;;;;;4995657;28;20193;-50
2023/04/07 10:06:46;;;;;;;5.57;3.90;;;;;;;;;;4989554;28;22109;-49
2023/04/07 10:09:13;;;;;;;2.95;2.47;;;;;;;;;;4991088;28;20595;-50
2023/04/07 10:11:40;;;;;;;3.55;3.20;;;;;;;;;;4994861;28;20185;-50
2023/04/07 10:14:06;;;;;;;4.65;2.85;;;;;;;;;;4994009;28;20173;-50
2023/04/07 10:16:32;;;;;;;3.42;3.03;;;;;;;;;;4998548;28;20251;-50
2023/04/07 10:18:58;;;;;;;3.08;2.78;;;;;;;;;;4993795;28;20260;-50
2023/04/07 10:21:26;;;;;;;2.70;2.22;;;;;;;;;;4996812;28;20516;-50
2023/04/07 10:23:52;;;;;;;3.45;2.97;;;;;;;;;;4992448;28;20184;-50
2023/04/07 10:26:22;;;;;;;2.80;2.60;;;;;;;;;;4995606;28;20173;-50
2023/04/07 10:28:50;;;;;;;2.72;2.53;;;;;;;;;;4990342;28;20177;-50
2023/04/07 10:31:16;;;;;;;6.18;3.70;;;;;;;;;;4997193;28;20255;-50
2023/04/07 10:33:46;;;;;;;3.00;2.70;;;;;;;;;;4991609;28;20286;-50
2023/04/07 10:36:12;;;;;;;3.58;2.72;;;;;;;;;;4991440;28;20197;-50
2023/04/07 10:38:38;;;;;;;3.08;2.67;;;;;;;;;;4990383;28;20616;-50
2023/04/07 10:41:22;;;;;;;3.90;2.55;;;;;;;;;;4996894;28;20253;-50
2023/04/07 10:43:48;;;;;;;3.45;2.60;;;;;;;;;;4991667;28;20189;-50
2023/04/07 10:46:14;;;;;;;5.00;2.90;;;;;;;;;;5006950;28;20556;-50
2023/04/07 10:48:40;;;;;;;3.33;2.47;;;;;;;;;;4990610;28;20192;-50
2023/04/07 10:51:11;;;;;;;2.53;2.33;;;;;;;;;;4996467;28;20467;-50
2023/04/07 10:53:37;;;;;;;2.83;2.53;;;;;;;;;;4988655;28;20324;-50
2023/04/07 10:56:03;;;;;;;3.80;3.10;;;;;;;;;;4996415;28;20680;-50
2023/04/07 10:58:29;;;;;;;3.85;3.45;;;;;;;;;;4994985;28;20185;-50
2023/04/07 11:01:11;;;;;;;3.67;3.13;;;;;;;;;;4985629;28;20182;-50
2023/04/07 11:03:41;;;;;;;3.53;3.00;;;;;;;;;;4995269;28;20449;-50
2023/04/07 11:06:10;;;;;;;4.00;2.67;;;;;;;;;;4989531;28;20190;-50
2023/04/07 11:08:43;;;;;;;3.92;3.17;;;;;;;;;;4992113;28;20181;-51
2023/04/07 11:11:10;;;;;;;2.42;2.22;;;;;;;;;;4992794;28;20233;-50
2023/04/07 11:13:42;;;;;;;5.32;3.67;;;;;;;;;;4994337;28;20219;-50
2023/04/07 11:16:08;;;;;;;4.00;3.60;;;;;;;;;;5000695;28;20185;-50
2023/04/07 11:18:35;;;;;;;3.85;3.28;;;;;;;;;;4993523;28;20205;-50
2023/04/07 11:21:02;;;;;;;4.15;3.25;;;;;;;;;;4991218;28;20519;-50
2023/04/07 11:23:28;;;;;;;4.60;3.65;;;;;;;;;;4991090;28;20322;-50
2023/04/07 11:26:00;;;;;;;5.28;3.75;;;;;;;;;;4995885;28;20189;-50
2023/04/07 11:28:27;;;;;;;4.38;3.83;;;;;;;;;;4990096;28;20193;-50
2023/04/07 11:30:53;;;;;;;4.32;3.90;;;;;;;;;;4990911;28;20436;-50
2023/04/07 11:33:21;;;;;;;3.25;2.28;;;;;;;;;;4994267;28;20212;-50
2023/04/07 11:35:47;;;;;;;4.78;3.63;;;;;;;;;;4995687;28;20300;-50
2023/04/07 11:38:15;;;;;;;3.88;2.92;;;;;;;;;;4995557;28;20201;-50
2023/04/07 11:40:41;;;;;;;5.18;4.68;;;;;;;;;;4994993;28;20297;-50
2023/04/07 11:43:36;;;;;;;4.47;2.83;;;;;;;;;;4990947;28;20272;-50
2023/04/07 11:46:03;;;;;;;5.57;3.85;;;;;;;;;;4988240;28;20193;-51
2023/04/07 11:48:30;;;;;;;3.85;3.28;;;;;;;;;;4994143;28;20260;-50
2023/04/07 11:50:56;;;;;;;3.30;2.80;;;;;;;;;;4995867;28;20222;-50
2023/04/07 11:53:28;;;;;;;3.70;2.25;;;;;;;;;;4993358;28;20217;-50
2023/04/07 11:56:09;;;;;;;2.45;2.22;;;;;;;;;;4995001;28;20193;-50
2023/04/07 11:58:35;;;;;;;2.60;2.40;;;;;;;;;;4993664;28;20173;-50
2023/04/07 12:01:05;;;;;;;3.15;2.78;;;;;;;;;;4994801;28;20708;-50
2023/04/07 12:03:31;;;;;;;5.25;4.53;;;;;;;;;;4994073;28;20185;-50
2023/04/07 12:05:57;;;;;;;5.00;3.40;;;;;;;;;;4990283;28;20252;-50
2023/04/07 12:08:36;;;;;;;5.97;4.32;;;;;;;;;;4987539;28;20547;-50
2023/04/07 12:11:03;;;;;;;4.20;3.75;;;;;;;;;;4994274;28;20200;-49
2023/04/07 12:13:29;;;;;;;4.20;3.75;;;;;;;;;;4988420;28;20205;-49
2023/04/07 12:15:55;;;;;;;3.40;3.00;;;;;;;;;;4997457;28;20184;-50
2023/04/07 12:18:21;;;;;;;4.00;3.58;;;;;;;;;;4988005;28;20192;-50
2023/04/07 12:20:47;;;;;;;5.00;3.78;;;;;;;;;;4993964;28;20261;-50
2023/04/07 12:23:13;;;;;;;3.97;3.45;;;;;;;;;;4987011;28;20276;-50
2023/04/07 12:25:39;;;;;;;6.68;4.10;;;;;;;;;;4994107;28;20193;-50
2023/04/07 12:28:05;;;;;;;6.25;4.55;;;;;;;;;;4990048;28;20184;-50
2023/04/07 12:30:31;;;;;;;4.90;4.07;;;;;;;;;;4987240;28;20185;-50
2023/04/07 12:32:57;;;;;;;3.50;3.20;;;;;;;;;;4993531;28;20335;-50
2023/04/07 12:35:23;;;;;;;3.40;3.00;;;;;;;;;;4993645;28;20259;-50
2023/04/07 12:37:51;;;;;;;4.78;4.18;;;;;;;;;;4987654;28;20587;-50
2023/04/07 12:40:17;;;;;;;3.88;3.30;;;;;;;;;;4991909;28;20259;-49
2023/04/07 12:42:43;;;;;;;4.10;3.47;;;;;;;;;;4986520;28;20217;-50
2023/04/07 12:45:09;;;;;;;2.70;2.50;;;;;;;;;;4988925;28;20485;-50
2023/04/07 12:47:35;;;;;;;2.60;2.40;;;;;;;;;;4986446;28;20189;-50
2023/04/07 12:50:01;;;;;;;3.80;3.00;;;;;;;;;;4994659;28;20260;-50
2023/04/07 12:52:27;;;;;;;3.15;2.78;;;;;;;;;;4990021;28;20608;-49
2023/04/07 12:54:53;;;;;;;2.92;2.03;;;;;;;;;;4989878;28;20188;-50
2023/04/07 12:57:19;;;;;;;2.47;1.95;;;;;;;;;;4995972;28;20261;-50
2023/04/07 12:59:45;;;;;;;2.72;2.22;;;;;;;;;;4997874;28;20550;-50
2023/04/07 13:02:12;;;;;;;4.28;2.85;;;;;;;;;;4991641;28;20196;-50
2023/04/07 13:04:42;;;;;;;2.72;2.45;;;;;;;;;;4994129;28;20185;-49
2023/04/07 13:07:08;;;;;;;4.20;3.30;;;;;;;;;;4992068;28;20276;-49
2023/04/07 13:09:34;;;;;;;2.95;2.60;;;;;;;;;;4993030;28;20300;-50
2023/04/07 13:12:00;;;;;;;4.10;3.40;;;;;;;;;;4997012;28;20245;-50
2023/04/07 13:14:26;;;;;;;3.97;3.65;;;;;;;;;;5001087;28;20566;-49
2023/04/07 13:16:52;;;;;;;3.80;3.38;;;;;;;;;;4994024;28;20220;-50
2023/04/07 13:19:18;;;;;;;3.88;3.58;;;;;;;;;;4994505;28;20264;-49
2023/04/07 13:21:44;;;;;;;4.05;3.58;;;;;;;;;;4996467;28;20248;-50
2023/04/07 13:24:10;;;;;;;4.47;3.75;;;;;;;;;;4996335;28;20239;-50
2023/04/07 13:26:36;;;;;;;4.20;2.90;;;;;;;;;;4997190;28;20185;-50
2023/04/07 13:29:01;;;;;;;3.85;3.50;;;;;;;;;;4993891;28;20177;-50
2023/04/07 13:31:27;;;;;;;6.80;3.92;;;;;;;;;;4993746;28;20189;-49
2023/04/07 13:33:53;;;;;;;4.13;3.28;;;;;;;;;;4996303;28;20201;-50
2023/04/07 13:36:20;;;;;;;3.45;3.15;;;;;;;;;;4994638;28;20190;-49
2023/04/07 13:38:45;;;;;;;3.65;3.28;;;;;;;;;;4994630;28;20189;-50
2023/04/07 13:41:11;;;;;;;3.33;3.03;;;;;;;;;;4993237;28;20211;-50
2023/04/07 13:43:37;;;;;;;4.70;3.38;;;;;;;;;;4993572;28;20189;-49
2023/04/07 13:46:03;;;;;;;3.65;2.78;;;;;;;;;;5015122;28;20192;-50
2023/04/07 13:48:29;;;;;;;2.88;2.55;;;;;;;;;;4997394;28;20571;-49
2023/04/07 13:50:55;;;;;;;3.15;2.80;;;;;;;;;;4996729;28;20181;-50
2023/04/07 13:53:21;;;;;;;5.15;3.20;;;;;;;;;;4990668;28;20237;-50
2023/04/07 13:55:47;;;;;;;4.80;3.22;;;;;;;;;;4993892;28;20174;-50
2023/04/07 13:58:13;;;;;;;3.30;2.97;;;;;;;;;;4991490;28;20185;-49
2023/04/07 14:00:39;;;;;;;2.42;2.20;;;;;;;;;;4990673;28;20185;-49
2023/04/07 14:03:06;;;;;;;4.50;2.55;;;;;;;;;;4990110;28;20196;-50
2023/04/07 14:05:32;;;;;;;3.83;2.65;;;;;;;;;;4996281;28;20185;-50
2023/04/07 14:07:58;;;;;;;3.03;2.78;;;;;;;;;;4995801;28;20607;-50
2023/04/07 14:10:24;;;;;;;3.40;2.90;;;;;;;;;;4993371;28;20189;-49
2023/04/07 14:12:50;;;;;;;3.15;2.65;;;;;;;;;;4996783;28;20209;-49
2023/04/07 14:15:16;;;;;;;3.30;2.83;;;;;;;;;;5007998;28;20187;-50
2023/04/07 14:17:42;;;;;;;2.45;2.25;;;;;;;;;;5002374;28;20492;-50
2023/04/07 14:20:08;;;;;;;3.35;2.85;;;;;;;;;;4997731;28;20181;-50
2023/04/07 14:22:34;;;;;;;3.35;2.65;;;;;;;;;;4996429;28;20224;-50
2023/04/07 14:25:00;;;;;;;3.42;2.72;;;;;;;;;;4994584;28;20197;-50